Time;durP1;ratioP1;P1;durP2;ratioP2;P2;SDS_P1;SDS_P2;PMS_P1;PMS_P2;Temp;Humidity;BMP_temperature;BMP_pressure;BME280_temperature;BME280_humidity;BME280_pressure;Samples;Min_cycle;Max_cycle;Signal;HPM_P1;HPM_P2
2023/03/25 00:01:39;;;;;;;13.65;12.95;;;8.30;99.90;;;;;;4982594;28;20034;-78
2023/03/25 00:04:06;;;;;;;14.73;13.68;;;8.30;99.90;;;;;;5002256;28;20049;-79
2023/03/25 00:06:33;;;;;;;13.75;12.77;;;8.20;99.90;;;;;;5001020;28;20054;-80
2023/03/25 00:09:01;;;;;;;13.95;12.77;;;8.20;99.90;;;;;;4982474;28;20637;-79
2023/03/25 00:11:28;;;;;;;13.48;12.60;;;8.20;99.90;;;;;;5000890;28;20474;-78
2023/03/25 00:13:54;;;;;;;14.13;13.13;;;8.20;99.90;;;;;;4986002;28;20053;-80
2023/03/25 00:16:21;;;;;;;13.57;12.77;;;8.20;99.90;;;;;;4977170;28;20038;-79
2023/03/25 00:18:48;;;;;;;13.90;13.00;;;8.20;99.90;;;;;;4998917;28;20498;-79
2023/03/25 00:21:17;;;;;;;14.85;13.75;;;8.30;99.90;;;;;;5001024;28;20166;-80
2023/03/25 00:23:44;;;;;;;13.52;12.70;;;8.30;99.90;;;;;;5000747;28;20056;-79
2023/03/25 00:26:11;;;;;;;14.48;13.38;;;8.30;99.90;;;;;;5000724;28;20045;-78
2023/03/25 00:28:38;;;;;;;15.52;14.32;;;8.40;99.90;;;;;;4998986;28;20330;-78
2023/03/25 00:31:12;;;;;;;13.55;12.80;;;8.40;99.90;;;;;;4984821;28;20042;-79
2023/03/25 00:33:42;;;;;;;14.93;14.13;;;8.40;99.90;;;;;;4992443;28;20054;-79
2023/03/25 00:36:12;;;;;;;15.43;14.02;;;8.50;99.90;;;;;;5007049;28;20069;-78
2023/03/25 00:38:40;;;;;;;15.20;14.10;;;8.50;99.90;;;;;;4998735;28;20042;-80
2023/03/25 00:41:16;;;;;;;14.27;13.38;;;8.50;99.90;;;;;;5001645;28;20645;-78
2023/03/25 00:43:44;;;;;;;13.82;12.90;;;8.50;99.90;;;;;;4999158;28;20168;-79
2023/03/25 00:46:11;;;;;;;12.70;11.85;;;8.50;99.90;;;;;;5000706;28;20042;-80
2023/03/25 00:48:38;;;;;;;12.50;11.82;;;8.50;99.90;;;;;;4999052;28;20488;-82
2023/03/25 00:51:08;;;;;;;13.07;12.13;;;8.40;99.90;;;;;;5002998;28;20049;-78
2023/03/25 00:53:36;;;;;;;12.43;11.80;;;8.40;99.90;;;;;;4999292;28;20057;-81
2023/03/25 00:56:04;;;;;;;11.00;10.40;;;8.30;99.90;;;;;;5001160;28;20065;-82
2023/03/25 00:58:31;;;;;;;9.70;9.02;;;8.20;99.90;;;;;;4998498;28;20084;-78
2023/03/25 01:00:58;;;;;;;8.52;8.02;;;8.10;99.90;;;;;;4981565;28;20519;-80
2023/03/25 01:03:27;;;;;;;9.25;8.40;;;8.10;99.90;;;;;;4998377;28;20071;-81
2023/03/25 01:05:56;;;;;;;10.57;9.90;;;8.10;99.90;;;;;;4998751;28;20132;-78
2023/03/25 01:08:24;;;;;;;9.50;8.90;;;8.00;99.90;;;;;;4980615;28;20137;-81
2023/03/25 01:10:54;;;;;;;9.82;9.25;;;8.00;99.90;;;;;;4996225;28;20451;-80
2023/03/25 01:13:21;;;;;;;9.43;8.93;;;7.90;99.90;;;;;;5000268;28;20064;-80
2023/03/25 01:15:49;;;;;;;8.25;7.72;;;7.90;99.90;;;;;;4980980;28;20569;-78
2023/03/25 01:18:16;;;;;;;8.45;8.05;;;7.70;99.90;;;;;;5001852;28;20084;-79
2023/03/25 01:20:44;;;;;;;9.13;8.25;;;7.70;99.90;;;;;;4995569;28;20128;-79
2023/03/25 01:23:10;;;;;;;7.30;6.68;;;7.60;99.90;;;;;;4998042;28;20073;-81
2023/03/25 01:25:37;;;;;;;6.90;6.60;;;7.60;99.90;;;;;;4995105;28;20050;-79
2023/03/25 01:28:04;;;;;;;7.32;6.93;;;7.50;99.90;;;;;;4998503;28;20054;-79
2023/03/25 01:30:31;;;;;;;7.50;6.78;;;7.40;99.90;;;;;;4995507;28;20112;-79
2023/03/25 01:32:58;;;;;;;7.50;6.90;;;7.40;99.90;;;;;;4998384;28;20050;-79
2023/03/25 01:35:24;;;;;;;6.40;6.00;;;7.40;99.90;;;;;;4996481;28;20298;-80
2023/03/25 01:37:53;;;;;;;5.97;5.55;;;7.40;99.90;;;;;;4997095;28;20045;-80
2023/03/25 01:40:22;;;;;;;6.57;6.10;;;7.40;99.90;;;;;;4996995;28;20042;-80
2023/03/25 01:42:50;;;;;;;6.07;5.70;;;7.40;99.90;;;;;;5003213;28;20042;-81
2023/03/25 01:45:23;;;;;;;7.20;6.70;;;7.40;99.90;;;;;;4983309;28;20040;-78
2023/03/25 01:48:00;;;;;;;7.50;6.82;;;7.40;99.90;;;;;;4997437;28;20053;-79
2023/03/25 01:50:28;;;;;;;7.28;6.65;;;7.40;99.90;;;;;;4995764;28;20052;-78
2023/03/25 01:52:57;;;;;;;9.52;7.40;;;7.40;99.90;;;;;;4981375;28;20060;-80
2023/03/25 01:55:26;;;;;;;8.15;7.55;;;7.50;99.90;;;;;;4995608;28;20050;-79
2023/03/25 01:57:58;;;;;;;9.80;8.10;;;7.50;99.90;;;;;;4981207;28;20049;-77
2023/03/25 02:00:25;;;;;;;10.10;9.25;;;7.50;99.90;;;;;;4995439;28;20110;-79
2023/03/25 02:02:57;;;;;;;9.35;8.45;;;7.60;99.90;;;;;;4994477;28;20052;-80
2023/03/25 02:05:34;;;;;;;9.40;8.70;;;7.60;99.90;;;;;;4996294;28;20045;-80
2023/03/25 02:08:04;;;;;;;9.07;8.50;;;7.60;99.90;;;;;;4992821;28;20050;-78
2023/03/25 02:10:32;;;;;;;9.48;8.77;;;7.50;99.90;;;;;;4994946;28;20046;-80
2023/03/25 02:13:00;;;;;;;9.07;8.50;;;7.50;99.90;;;;;;4998243;28;20052;-78
2023/03/25 02:15:37;;;;;;;9.35;8.75;;;7.50;99.90;;;;;;4995242;28;20495;-78
2023/03/25 02:18:28;;;;;;;10.43;9.60;;;7.50;99.90;;;;;;4984192;28;20136;-78
2023/03/25 02:21:44;;;;;;;10.52;9.73;;;7.60;99.90;;;;;;4997238;28;20107;-80
2023/03/25 02:24:22;;;;;;;;;;;7.60;99.90;;;;;;4998714;28;20190;-79
2023/03/25 02:27:16;;;;;;;11.80;10.70;;;7.60;99.90;;;;;;4990770;28;19925;-79
2023/03/25 02:30:28;;;;;;;11.30;10.38;;;7.50;99.90;;;;;;4997707;28;20042;-80
2023/03/25 02:33:20;;;;;;;11.02;10.32;;;7.50;99.90;;;;;;4998652;28;20042;-78
2023/03/25 02:36:19;;;;;;;11.50;10.35;;;7.50;99.90;;;;;;4982798;28;20567;-79
2023/03/25 02:38:46;;;;;;;11.30;10.55;;;7.50;99.90;;;;;;4982426;28;20072;-78
2023/03/25 02:41:46;;;;;;;11.48;10.52;;;7.50;99.90;;;;;;4999322;28;20045;-81
2023/03/25 02:44:33;;;;;;;12.77;11.60;;;7.60;99.90;;;;;;4977347;28;20081;-79
2023/03/25 02:47:07;;;;;;;12.68;11.63;;;7.60;99.90;;;;;;4999182;28;20096;-78
2023/03/25 02:49:53;;;;;;;12.07;11.20;;;7.60;99.90;;;;;;4999406;28;20511;-78
2023/03/25 02:52:28;;;;;;;11.68;10.98;;;7.60;99.90;;;;;;5002074;28;20376;-79
2023/03/25 02:55:00;;;;;;;12.32;11.38;;;7.60;99.90;;;;;;4982511;28;20046;-78
2023/03/25 02:57:31;;;;;;;12.55;11.35;;;7.50;99.90;;;;;;4998249;28;20526;-79
2023/03/25 02:59:59;;;;;;;13.00;11.68;;;7.50;99.90;;;;;;4981985;28;20496;-81
2023/03/25 03:02:31;;;;;;;12.73;11.60;;;7.50;99.90;;;;;;4982632;28;20079;-80
2023/03/25 03:04:58;;;;;;;16.15;12.55;;;7.60;99.90;;;;;;4983167;28;20069;-79
2023/03/25 03:07:38;;;;;;;13.45;11.98;;;7.60;99.90;;;;;;5007639;28;20097;-79
2023/03/25 03:10:22;;;;;;;13.00;11.90;;;7.60;99.90;;;;;;4983079;28;20053;-80
2023/03/25 03:12:59;;;;;;;13.18;12.15;;;7.60;99.90;;;;;;4998019;28;20045;-79
2023/03/25 03:15:34;;;;;;;13.00;12.00;;;7.70;99.90;;;;;;4997945;28;20045;-78
2023/03/25 03:18:33;;;;;;;14.25;13.02;;;7.70;99.90;;;;;;5000468;28;20045;-79
2023/03/25 03:21:22;;;;;;;13.32;12.25;;;7.70;99.90;;;;;;4997110;28;20362;-79
2023/03/25 03:24:20;;;;;;;14.57;13.32;;;7.70;99.90;;;;;;4998139;28;20045;-79
2023/03/25 03:26:52;;;;;;;14.27;12.68;;;7.60;99.90;;;;;;4984031;28;20491;-79
2023/03/25 03:29:30;;;;;;;13.55;12.32;;;7.60;99.90;;;;;;4984158;28;20738;-79
2023/03/25 03:32:06;;;;;;;14.02;12.55;;;7.60;99.90;;;;;;5000067;28;20053;-79
2023/03/25 03:34:46;;;;;;;12.35;11.45;;;7.60;99.90;;;;;;4983459;28;20042;-78
2023/03/25 03:37:17;;;;;;;15.35;14.10;;;7.60;99.90;;;;;;4997186;28;20070;-79
2023/03/25 03:39:47;;;;;;;16.05;14.85;;;7.70;99.90;;;;;;5002827;28;20619;-78
2023/03/25 03:42:31;;;;;;;17.05;15.60;;;7.70;99.90;;;;;;4981056;28;20136;-78
2023/03/25 03:45:04;;;;;;;15.02;13.98;;;7.80;99.90;;;;;;5000663;28;20052;-80
2023/03/25 03:47:38;;;;;;;17.60;15.20;;;7.70;99.90;;;;;;4999681;28;20041;-78
2023/03/25 03:50:30;;;;;;;15.98;14.88;;;7.70;99.90;;;;;;5002285;28;20045;-78
2023/03/25 03:53:02;;;;;;;16.60;15.25;;;7.70;99.90;;;;;;5000516;28;20173;-78
2023/03/25 03:56:02;;;;;;;15.77;14.68;;;7.70;99.90;;;;;;5000199;28;20231;-78
2023/03/25 03:58:33;;;;;;;16.75;15.27;;;7.70;99.90;;;;;;4975583;28;20099;-79
2023/03/25 04:01:13;;;;;;;16.58;15.57;;;7.80;99.90;;;;;;4999499;28;20053;-78
2023/03/25 04:03:51;;;;;;;16.55;15.50;;;7.70;99.90;;;;;;4996639;28;20045;-78
2023/03/25 04:06:26;;;;;;;15.98;14.63;;;7.70;99.90;;;;;;4999585;28;20033;-78
2023/03/25 04:08:58;;;;;;;15.27;14.38;;;7.60;99.90;;;;;;4999320;28;20084;-79
2023/03/25 04:11:34;;;;;;;16.05;14.95;;;7.60;99.90;;;;;;4996781;28;20738;-77
2023/03/25 04:14:02;;;;;;;16.27;14.85;;;7.60;99.90;;;;;;5000244;28;20523;-78
2023/03/25 04:16:31;;;;;;;12.77;11.90;;;7.50;99.90;;;;;;4998861;28;20041;-79
2023/03/25 04:19:02;;;;;;;13.40;12.15;;;7.50;99.90;;;;;;4981154;28;20050;-78
2023/03/25 04:21:30;;;;;;;12.55;11.80;;;7.50;99.90;;;;;;4980404;28;20492;-79
2023/03/25 04:24:00;;;;;;;13.15;12.25;;;7.50;99.90;;;;;;5000038;28;20050;-77
2023/03/25 04:26:32;;;;;;;12.68;11.73;;;7.40;99.90;;;;;;4997466;28;20034;-77
2023/03/25 04:29:03;;;;;;;13.38;12.07;;;7.40;99.90;;;;;;4999579;28;20432;-77
2023/03/25 04:31:30;;;;;;;13.32;12.00;;;7.40;99.90;;;;;;4997258;28;20045;-79
2023/03/25 04:33:59;;;;;;;13.13;12.05;;;7.30;99.90;;;;;;4999802;28;20545;-79
2023/03/25 04:36:32;;;;;;;13.27;12.27;;;7.40;99.90;;;;;;4981828;28;20048;-77
2023/03/25 04:39:00;;;;;;;12.85;11.60;;;7.40;99.90;;;;;;4999698;28;20442;-77
2023/03/25 04:41:27;;;;;;;14.20;12.85;;;7.40;99.90;;;;;;4997991;28;20248;-77
2023/03/25 04:43:54;;;;;;;12.90;11.85;;;7.40;99.90;;;;;;4998446;28;20074;-78
2023/03/25 04:46:20;;;;;;;15.18;12.50;;;7.30;99.90;;;;;;4998164;28;20042;-79
2023/03/25 04:48:48;;;;;;;11.50;10.68;;;7.40;99.90;;;;;;4998483;28;20073;-78
2023/03/25 04:51:14;;;;;;;12.18;11.07;;;7.40;99.90;;;;;;4997728;28;20049;-79
2023/03/25 04:53:41;;;;;;;12.10;11.23;;;7.40;99.90;;;;;;5000279;28;20590;-78
2023/03/25 04:56:14;;;;;;;12.20;11.40;;;7.30;99.90;;;;;;4982296;28;20084;-78
2023/03/25 04:58:45;;;;;;;13.00;11.63;;;7.40;99.90;;;;;;4998068;28;20037;-79
2023/03/25 05:01:31;;;;;;;12.80;11.70;;;7.40;99.90;;;;;;5002361;28;20042;-80
2023/03/25 05:04:04;;;;;;;12.43;11.57;;;7.40;99.90;;;;;;4997276;28;20785;-79
2023/03/25 05:06:39;;;;;;;14.32;12.85;;;7.40;99.90;;;;;;4980851;28;20038;-78
2023/03/25 05:09:07;;;;;;;13.43;12.20;;;7.40;99.90;;;;;;4999415;28;20064;-79
2023/03/25 05:11:40;;;;;;;13.38;12.40;;;7.40;99.90;;;;;;4998399;28;20156;-80
2023/03/25 05:14:08;;;;;;;13.73;12.60;;;7.40;99.90;;;;;;5001006;28;20107;-79
2023/03/25 05:16:35;;;;;;;11.68;10.98;;;7.40;99.90;;;;;;4999781;28;20053;-77
2023/03/25 05:19:05;;;;;;;11.95;11.15;;;7.30;99.90;;;;;;4999544;28;20053;-79
2023/03/25 05:21:35;;;;;;;11.60;10.40;;;7.30;99.90;;;;;;4998681;28;20065;-80
2023/03/25 05:24:03;;;;;;;10.48;9.50;;;7.30;99.90;;;;;;4999698;28;20073;-78
2023/03/25 05:26:33;;;;;;;8.60;8.10;;;7.20;99.90;;;;;;4984931;28;20069;-79
2023/03/25 05:29:04;;;;;;;12.48;7.70;;;7.10;99.90;;;;;;5001050;28;20057;-79
2023/03/25 05:31:31;;;;;;;8.73;7.95;;;7.00;99.90;;;;;;4995923;28;20203;-78
2023/03/25 05:33:58;;;;;;;10.50;9.45;;;7.10;99.90;;;;;;5007024;28;20129;-77
2023/03/25 05:36:25;;;;;;;10.40;8.15;;;7.00;99.90;;;;;;5001033;28;20038;-76
2023/03/25 05:38:53;;;;;;;9.15;8.35;;;7.10;99.90;;;;;;4985922;28;20048;-78
2023/03/25 05:41:31;;;;;;;8.80;8.07;;;7.10;99.90;;;;;;4999318;28;20542;-78
2023/03/25 05:43:59;;;;;;;8.93;7.75;;;7.10;99.90;;;;;;5000696;28;20149;-77
2023/03/25 05:46:30;;;;;;;10.05;9.15;;;7.10;99.90;;;;;;4999485;28;20038;-75
2023/03/25 05:48:59;;;;;;;11.45;10.32;;;7.10;99.90;;;;;;4984611;28;20056;-79
2023/03/25 05:51:27;;;;;;;11.60;10.73;;;7.10;99.90;;;;;;5004773;28;20061;-74
2023/03/25 05:53:53;;;;;;;11.70;10.75;;;7.00;99.90;;;;;;5003349;28;20617;-78
2023/03/25 05:56:23;;;;;;;11.48;10.70;;;7.00;99.90;;;;;;4999248;28;20267;-77
2023/03/25 05:58:51;;;;;;;11.10;10.07;;;7.00;99.90;;;;;;5009520;28;20128;-77
2023/03/25 06:01:20;;;;;;;11.60;10.40;;;7.00;99.90;;;;;;4986045;28;20048;-76
2023/03/25 06:04:02;;;;;;;10.90;10.00;;;7.00;99.90;;;;;;5005673;28;20141;-78
2023/03/25 06:06:32;;;;;;;10.90;9.65;;;7.00;99.90;;;;;;5002548;28;20084;-76
2023/03/25 06:08:59;;;;;;;11.75;10.80;;;7.10;99.90;;;;;;5007191;28;20547;-78
2023/03/25 06:11:26;;;;;;;11.88;11.10;;;7.10;99.90;;;;;;5008263;28;20058;-76
2023/03/25 06:13:52;;;;;;;12.23;11.43;;;7.10;99.90;;;;;;5001561;28;20410;-78
2023/03/25 06:16:21;;;;;;;13.35;12.07;;;7.20;99.90;;;;;;5007433;28;20118;-78
2023/03/25 06:18:54;;;;;;;12.57;11.60;;;7.30;99.90;;;;;;5007473;28;20132;-77
2023/03/25 06:21:23;;;;;;;14.48;13.27;;;7.30;99.90;;;;;;4986849;28;20037;-79
2023/03/25 06:23:50;;;;;;;14.07;12.73;;;7.30;99.90;;;;;;5003347;28;20522;-78
2023/03/25 06:26:18;;;;;;;15.85;14.23;;;7.40;99.90;;;;;;4984975;28;20540;-78
2023/03/25 06:28:45;;;;;;;13.80;12.80;;;7.40;99.90;;;;;;5001169;28;20095;-78
2023/03/25 06:31:21;;;;;;;15.32;13.70;;;7.40;99.90;;;;;;5003200;28;20840;-78
2023/03/25 06:33:49;;;;;;;15.32;14.20;;;7.40;99.90;;;;;;5002579;28;20050;-77
2023/03/25 06:36:17;;;;;;;16.10;14.98;;;7.40;99.90;;;;;;4986598;28;20058;-78
2023/03/25 06:38:49;;;;;;;16.65;15.55;;;7.50;99.90;;;;;;5001630;28;20309;-76
2023/03/25 06:41:19;;;;;;;17.40;16.30;;;7.50;99.90;;;;;;5001846;28;20114;-77
2023/03/25 06:43:53;;;;;;;18.08;16.90;;;7.50;99.90;;;;;;5003095;28;20046;-77
2023/03/25 06:46:29;;;;;;;18.70;17.35;;;7.60;99.90;;;;;;5000519;28;20417;-77
2023/03/25 06:49:01;;;;;;;17.85;16.52;;;7.60;99.90;;;;;;5006617;28;20061;-77
2023/03/25 06:51:28;;;;;;;17.40;16.17;;;7.60;99.90;;;;;;4987844;28;20326;-77
2023/03/25 06:53:55;;;;;;;18.48;16.75;;;7.60;99.90;;;;;;4986333;28;20046;-77
2023/03/25 06:56:21;;;;;;;16.55;15.55;;;7.60;99.90;;;;;;5001645;28;20060;-78
2023/03/25 06:58:48;;;;;;;18.65;17.25;;;7.60;99.90;;;;;;5002464;28;20045;-78
2023/03/25 07:01:15;;;;;;;17.55;16.33;;;7.60;99.90;;;;;;5001518;28;20046;-78
2023/03/25 07:03:42;;;;;;;16.20;14.65;;;7.60;99.90;;;;;;5001971;28;20048;-79
2023/03/25 07:06:15;;;;;;;11.52;10.40;;;7.40;99.90;;;;;;5002517;28;20045;-75
2023/03/25 07:08:42;;;;;;;11.20;10.13;;;7.30;99.90;;;;;;5001292;28;20050;-78
2023/03/25 07:11:11;;;;;;;11.10;9.60;;;7.20;99.90;;;;;;5001671;28;20045;-79
2023/03/25 07:13:38;;;;;;;11.95;10.77;;;7.20;99.90;;;;;;5001787;28;20078;-77
2023/03/25 07:16:05;;;;;;;13.15;11.80;;;7.20;99.90;;;;;;4985534;28;20038;-77
2023/03/25 07:18:32;;;;;;;12.07;11.00;;;7.20;99.90;;;;;;5003863;28;20076;-78
2023/03/25 07:20:59;;;;;;;13.35;12.02;;;7.30;99.90;;;;;;5002099;28;20267;-78
2023/03/25 07:23:26;;;;;;;14.27;13.25;;;7.40;99.90;;;;;;4988489;28;20046;-75
2023/03/25 07:25:52;;;;;;;14.48;13.38;;;7.40;99.90;;;;;;5012879;28;20622;-80
2023/03/25 07:28:20;;;;;;;14.20;13.00;;;7.50;99.90;;;;;;4994866;28;20046;-80
2023/03/25 07:30:46;;;;;;;16.20;14.65;;;7.60;99.90;;;;;;5012007;28;20050;-80
2023/03/25 07:33:13;;;;;;;14.50;13.70;;;7.60;99.90;;;;;;5007889;28;20053;-81
2023/03/25 07:35:40;;;;;;;15.18;14.18;;;7.60;99.90;;;;;;4986012;28;20074;-79
2023/03/25 07:38:08;;;;;;;16.85;15.82;;;7.70;99.90;;;;;;5007172;28;20135;-80
2023/03/25 07:40:35;;;;;;;16.02;15.23;;;7.70;99.90;;;;;;4993264;28;20488;-80
2023/03/25 07:43:02;;;;;;;17.08;15.77;;;7.80;99.90;;;;;;4986481;28;20077;-79
2023/03/25 07:45:41;;;;;;;17.00;16.10;;;7.80;99.90;;;;;;4999276;28;20052;-79
2023/03/25 07:48:13;;;;;;;15.27;14.57;;;7.80;99.90;;;;;;4995099;28;20058;-79
2023/03/25 07:50:41;;;;;;;16.45;15.63;;;7.70;99.90;;;;;;5006150;28;20042;-79
2023/03/25 07:53:09;;;;;;;19.58;18.58;;;7.70;99.90;;;;;;5008829;28;20057;-78
2023/03/25 07:55:36;;;;;;;19.52;18.42;;;7.70;99.90;;;;;;4996649;28;20108;-77
2023/03/25 07:58:03;;;;;;;16.95;16.17;;;7.80;99.90;;;;;;5001511;28;20395;-76
2023/03/25 08:00:30;;;;;;;15.63;14.70;;;7.90;99.90;;;;;;4990962;28;20122;-79
2023/03/25 08:02:57;;;;;;;16.13;14.93;;;7.90;99.90;;;;;;4988272;28;20042;-79
2023/03/25 08:05:24;;;;;;;17.85;16.95;;;7.90;99.90;;;;;;5001360;28;20049;-77
2023/03/25 08:07:51;;;;;;;19.70;18.50;;;7.90;99.90;;;;;;4985473;28;20052;-78
2023/03/25 08:10:19;;;;;;;18.42;17.52;;;7.90;99.90;;;;;;4989412;28;20049;-76
2023/03/25 08:12:46;;;;;;;19.27;18.15;;;7.90;99.90;;;;;;5002148;28;20045;-77
2023/03/25 08:15:13;;;;;;;19.77;18.27;;;7.90;99.90;;;;;;5002251;28;20546;-76
2023/03/25 08:17:40;;;;;;;23.65;21.92;;;7.90;99.90;;;;;;5000383;28;20033;-75
2023/03/25 08:20:07;;;;;;;20.77;19.48;;;7.90;99.90;;;;;;4987444;28;20573;-75
2023/03/25 08:22:35;;;;;;;19.52;18.48;;;8.00;99.90;;;;;;4989889;28;20076;-75
2023/03/25 08:25:02;;;;;;;20.08;18.92;;;8.00;99.90;;;;;;4996925;28;20127;-74
2023/03/25 08:27:29;;;;;;;18.95;17.75;;;7.90;99.90;;;;;;4983708;28;20038;-76
2023/03/25 08:29:58;;;;;;;18.75;17.65;;;7.90;99.90;;;;;;4989308;28;20156;-75
2023/03/25 08:32:26;;;;;;;16.63;15.43;;;7.80;99.90;;;;;;4984565;28;20046;-75
2023/03/25 08:34:54;;;;;;;15.02;14.23;;;7.70;99.90;;;;;;5006598;28;20049;-76
2023/03/25 08:37:22;;;;;;;12.65;11.82;;;7.60;99.90;;;;;;5002494;28;20057;-76
2023/03/25 08:39:49;;;;;;;9.60;9.02;;;7.50;99.90;;;;;;4985365;28;20584;-75
2023/03/25 08:42:16;;;;;;;9.73;9.13;;;7.50;99.90;;;;;;4984983;28;20753;-76
2023/03/25 08:44:43;;;;;;;8.38;7.55;;;7.50;99.90;;;;;;5003212;28;20053;-76
2023/03/25 08:47:11;;;;;;;9.07;6.70;;;7.40;99.90;;;;;;5001232;28;20491;-79
2023/03/25 08:49:37;;;;;;;5.03;4.53;;;7.40;99.90;;;;;;5000894;28;20052;-76
2023/03/25 08:52:07;;;;;;;4.40;3.95;;;7.20;99.90;;;;;;5000856;28;20510;-77
2023/03/25 08:54:34;;;;;;;7.40;3.53;;;7.00;99.90;;;;;;5000798;28;20939;-77
2023/03/25 08:57:01;;;;;;;3.45;3.22;;;6.90;99.90;;;;;;4980687;28;20042;-79
2023/03/25 08:59:28;;;;;;;5.68;3.17;;;6.80;99.90;;;;;;4989054;28;20520;-79
2023/03/25 09:01:54;;;;;;;5.97;2.67;;;6.80;99.90;;;;;;4990469;28;20145;-79
2023/03/25 09:04:23;;;;;;;4.32;3.17;;;6.80;99.90;;;;;;4984898;28;20690;-81
2023/03/25 09:06:50;;;;;;;4.60;3.22;;;7.00;99.90;;;;;;5001621;28;20124;-77
2023/03/25 09:09:37;;;;;;;7.32;3.50;;;7.20;99.90;;;;;;5000325;28;20041;-76
2023/03/25 09:12:05;;;;;;;9.70;4.43;;;7.40;99.90;;;;;;5003251;28;20073;-78
2023/03/25 09:14:32;;;;;;;5.97;4.68;;;7.80;99.90;;;;;;5000615;28;20050;-76
2023/03/25 09:16:59;;;;;;;5.45;5.05;;;8.10;99.90;;;;;;4999197;28;20052;-79
2023/03/25 09:19:26;;;;;;;7.60;7.10;;;8.30;99.90;;;;;;4999272;28;20046;-79
2023/03/25 09:21:53;;;;;;;8.23;7.60;;;8.20;99.90;;;;;;4997723;28;20533;-79
2023/03/25 09:24:21;;;;;;;11.55;10.85;;;8.30;99.90;;;;;;5003450;28;20459;-79
2023/03/25 09:26:48;;;;;;;13.13;12.43;;;8.20;99.90;;;;;;5009753;28;20463;-77
2023/03/25 09:29:15;;;;;;;13.63;12.77;;;8.30;99.90;;;;;;5000547;28;20412;-79
2023/03/25 09:31:42;;;;;;;13.57;12.77;;;8.30;99.90;;;;;;5003262;28;20575;-78
2023/03/25 09:34:09;;;;;;;13.63;12.63;;;8.30;99.90;;;;;;5006081;28;20046;-79
2023/03/25 09:36:36;;;;;;;17.17;16.10;;;8.40;99.90;;;;;;5010069;28;20188;-76
2023/03/25 09:39:02;;;;;;;19.42;18.02;;;8.30;99.90;;;;;;5005058;28;20073;-77
2023/03/25 09:41:32;;;;;;;19.58;18.17;;;8.30;99.90;;;;;;5009576;28;20073;-76
2023/03/25 09:44:26;;;;;;;20.67;18.92;;;8.20;99.90;;;;;;5010069;28;20046;-78
2023/03/25 09:46:57;;;;;;;18.55;16.77;;;8.20;99.90;;;;;;5009013;28;20045;-77
2023/03/25 09:49:32;;;;;;;18.33;17.27;;;8.10;99.90;;;;;;4991132;28;20041;-77
2023/03/25 09:51:59;;;;;;;20.45;18.52;;;8.20;99.90;;;;;;5003089;28;20077;-76
2023/03/25 09:54:31;;;;;;;21.67;19.95;;;8.20;99.90;;;;;;5014144;28;20079;-76
2023/03/25 09:57:02;;;;;;;22.52;20.90;;;8.40;99.90;;;;;;5011204;28;20048;-77
2023/03/25 09:59:35;;;;;;;22.95;21.05;;;8.70;99.90;;;;;;5010034;28;20057;-78
2023/03/25 10:02:27;;;;;;;22.08;20.45;;;8.90;99.90;;;;;;5004678;28;20104;-78
2023/03/25 10:05:17;;;;;;;22.13;20.50;;;9.10;99.90;;;;;;4990212;28;20070;-77
2023/03/25 10:08:19;;;;;;;21.67;19.98;;;9.30;99.90;;;;;;4989394;28;20076;-78
2023/03/25 10:11:10;;;;;;;23.30;21.60;;;9.30;99.90;;;;;;5004802;28;20046;-77
2023/03/25 10:13:52;;;;;;;23.80;22.08;;;9.40;99.90;;;;;;5005712;28;20140;-79
2023/03/25 10:16:34;;;;;;;22.23;20.48;;;9.20;99.90;;;;;;4986132;28;20124;-79
2023/03/25 10:19:21;;;;;;;23.85;22.17;;;9.40;99.90;;;;;;5000847;28;20050;-77
2023/03/25 10:22:00;;;;;;;23.67;21.85;;;9.40;99.90;;;;;;5004019;28;20697;-77
2023/03/25 10:24:44;;;;;;;24.30;22.45;;;9.40;99.90;;;;;;5002094;28;20136;-75
2023/03/25 10:27:48;;;;;;;24.17;22.30;;;9.40;99.90;;;;;;4988179;28;20076;-77
2023/03/25 10:30:40;;;;;;;23.50;21.73;;;9.40;99.90;;;;;;5015134;28;20692;-77
2023/03/25 10:33:34;;;;;;;23.42;21.75;;;9.50;99.90;;;;;;4993452;28;20049;-76
2023/03/25 10:36:05;;;;;;;30.52;29.02;;;9.80;99.90;;;;;;5005603;28;20600;-77
2023/03/25 10:38:33;;;;;;;30.75;28.85;;;9.90;99.90;;;;;;5004135;28;21723;-76
2023/03/25 10:41:26;;;;;;;30.73;28.38;;;9.50;99.90;;;;;;5003818;28;20499;-76
2023/03/25 10:43:53;;;;;;;26.45;24.67;;;9.20;99.90;;;;;;4985674;28;20137;-76
2023/03/25 10:46:29;;;;;;;28.55;26.67;;;9.10;99.90;;;;;;5002426;28;20050;-78
2023/03/25 10:48:56;;;;;;;26.98;24.98;;;9.00;99.90;;;;;;5004112;28;20057;-76
2023/03/25 10:51:28;;;;;;;25.70;23.52;;;9.00;99.90;;;;;;4993188;28;20061;-78
2023/03/25 10:53:55;;;;;;;25.13;23.30;;;8.90;99.90;;;;;;4999453;28;20081;-76
2023/03/25 10:56:25;;;;;;;24.85;23.23;;;9.00;99.90;;;;;;5003995;28;20574;-76
2023/03/25 10:58:57;;;;;;;23.77;22.30;;;8.90;99.90;;;;;;4987583;28;20054;-76
2023/03/25 11:01:35;;;;;;;25.75;23.63;;;8.90;99.90;;;;;;5001146;28;20045;-77
2023/03/25 11:04:06;;;;;;;26.23;24.17;;;8.80;99.90;;;;;;4992443;28;20056;-77
2023/03/25 11:06:39;;;;;;;26.60;24.58;;;8.80;99.90;;;;;;4980397;28;20057;-75
2023/03/25 11:09:21;;;;;;;24.88;23.08;;;8.70;99.90;;;;;;5010852;28;20046;-76
2023/03/25 11:11:48;;;;;;;25.35;23.45;;;8.90;99.90;;;;;;5003019;28;20724;-77
2023/03/25 11:14:20;;;;;;;26.02;24.40;;;9.10;99.90;;;;;;5007357;28;20395;-76
2023/03/25 11:17:04;;;;;;;23.80;22.15;;;9.30;99.90;;;;;;5001467;28;20536;-76
2023/03/25 11:19:47;;;;;;;25.42;23.30;;;9.30;99.90;;;;;;4990163;28;20068;-75
2023/03/25 11:22:29;;;;;;;26.15;24.10;;;9.20;99.90;;;;;;5014107;28;20074;-75
2023/03/25 11:25:03;;;;;;;26.88;24.75;;;9.10;99.90;;;;;;4998294;28;20053;-74
2023/03/25 11:27:45;;;;;;;25.25;23.52;;;9.00;99.90;;;;;;5001839;28;20092;-75
2023/03/25 11:30:20;;;;;;;24.58;22.30;;;9.00;99.90;;;;;;5005604;28;20053;-77
2023/03/25 11:33:01;;;;;;;23.27;21.25;;;9.00;99.90;;;;;;4994253;28;20055;-75
2023/03/25 11:35:31;;;;;;;24.52;22.17;;;8.90;99.90;;;;;;5015396;28;20049;-74
2023/03/25 11:38:00;;;;;;;22.05;20.13;;;8.80;99.90;;;;;;5009466;28;20078;-75
2023/03/25 11:40:28;;;;;;;23.92;22.02;;;8.80;99.90;;;;;;5002688;28;20137;-74
2023/03/25 11:42:58;;;;;;;23.25;21.63;;;8.90;99.90;;;;;;5002899;28;20046;-77
2023/03/25 11:45:32;;;;;;;23.98;22.10;;;9.00;99.90;;;;;;4991027;28;20029;-76
2023/03/25 11:48:10;;;;;;;22.65;20.80;;;9.10;99.90;;;;;;5002481;28;20046;-76
2023/03/25 11:50:37;;;;;;;23.13;21.00;;;9.20;99.90;;;;;;5001989;28;20123;-76
2023/03/25 11:53:05;;;;;;;27.33;24.90;;;9.40;99.90;;;;;;5005903;28;20057;-74
2023/03/25 11:55:45;;;;;;;26.52;24.75;;;9.40;99.90;;;;;;4997461;28;20126;-76
2023/03/25 11:58:20;;;;;;;27.17;24.95;;;9.40;99.90;;;;;;5005353;28;20038;-75
2023/03/25 12:00:50;;;;;;;26.20;24.10;;;9.40;99.90;;;;;;4981313;28;20058;-76
2023/03/25 12:03:25;;;;;;;26.10;23.83;;;9.60;99.90;;;;;;4983565;28;20050;-73
2023/03/25 12:06:00;;;;;;;25.45;23.25;;;9.70;99.90;;;;;;5007770;28;20049;-77
2023/03/25 12:08:50;;;;;;;24.75;23.08;;;9.70;99.90;;;;;;5000680;28;20547;-76
2023/03/25 12:11:26;;;;;;;20.58;18.73;;;9.50;99.90;;;;;;5002076;28;20634;-76
2023/03/25 12:14:08;;;;;;;16.65;15.05;;;9.20;99.90;;;;;;5000512;28;20144;-78
2023/03/25 12:16:43;;;;;;;12.77;11.50;;;9.00;99.90;;;;;;5004112;28;20065;-77
2023/03/25 12:19:15;;;;;;;13.35;8.98;;;8.70;99.90;;;;;;5001172;28;20054;-79
2023/03/25 12:22:14;;;;;;;15.05;6.78;;;8.30;99.90;;;;;;4999113;28;20615;-77
2023/03/25 12:24:59;;;;;;;18.35;5.80;;;8.20;99.90;;;;;;5001851;28;20042;-76
2023/03/25 12:27:51;;;;;;;16.48;6.13;;;8.60;99.90;;;;;;4984303;28;20069;-75
2023/03/25 12:30:52;;;;;;;13.95;6.43;;;8.30;99.90;;;;;;4997808;28;20130;-78
2023/03/25 12:33:57;;;;;;;20.42;6.70;;;8.30;99.90;;;;;;5000791;28;20552;-79
2023/03/25 12:36:41;;;;;;;15.85;6.43;;;8.30;99.90;;;;;;4998529;28;20042;-77
2023/03/25 12:39:22;;;;;;;18.08;7.40;;;8.40;99.90;;;;;;5001642;28;20108;-76
2023/03/25 12:42:20;;;;;;;22.17;7.22;;;8.50;99.90;;;;;;4996369;28;20046;-76
2023/03/25 12:45:15;;;;;;;17.02;8.50;;;8.70;99.90;;;;;;5000505;28;20065;-78
2023/03/25 12:48:03;;;;;;;14.73;6.55;;;8.80;99.90;;;;;;4985566;28;20304;-77
2023/03/25 12:50:44;;;;;;;13.77;6.55;;;8.90;99.90;;;;;;4993329;28;20049;-78
2023/03/25 12:53:31;;;;;;;24.33;9.63;;;8.80;99.90;;;;;;5001161;28;20050;-78
2023/03/25 12:56:21;;;;;;;19.73;7.05;;;8.80;99.90;;;;;;5000285;28;20081;-77
2023/03/25 12:59:08;;;;;;;18.13;7.65;;;8.90;99.90;;;;;;5017408;28;20046;-78
2023/03/25 13:01:54;;;;;;;12.38;6.32;;;9.00;99.90;;;;;;4998542;28;20049;-77
2023/03/25 13:04:40;;;;;;;12.57;7.18;;;8.90;99.90;;;;;;4981508;28;20046;-79
2023/03/25 13:07:27;;;;;;;16.95;7.38;;;9.00;99.90;;;;;;4997038;28;20195;-77
2023/03/25 13:10:07;;;;;;;15.02;7.53;;;9.20;99.90;;;;;;4997140;28;20050;-77
2023/03/25 13:12:39;;;;;;;14.45;13.27;;;9.30;99.90;;;;;;4983524;28;20133;-76